Time;durP1;ratioP1;P1;durP2;ratioP2;P2;SDS_P1;SDS_P2;PMS_P1;PMS_P2;Temp;Humidity;BMP_temperature;BMP_pressure;BME280_temperature;BME280_humidity;BME280_pressure;Samples;Min_cycle;Max_cycle;Signal;HPM_P1;HPM_P2
2021/12/29 00:06:57;;;;;;;25.40;10.07;;;;;;;-0.59;100.00;99836.31;31192014;28;20137;-75
2021/12/29 00:21:59;;;;;;;19.73;9.43;;;;;;;-0.66;100.00;99846.81;31226742;28;20144;-75
2021/12/29 00:37:01;;;;;;;15.10;7.57;;;;;;;-0.83;100.00;99857.88;31182739;28;20038;-77
2021/12/29 00:52:05;;;;;;;14.20;7.87;;;;;;;-0.90;100.00;99857.69;31210076;28;20498;-77
2021/12/29 01:07:07;;;;;;;14.60;8.00;;;;;;;-1.08;100.00;99871.41;31223577;28;20119;-76
2021/12/29 01:22:10;;;;;;;9.73;5.90;;;;;;;-1.14;100.00;99882.66;31208971;28;20435;-77
2021/12/29 01:37:12;;;;;;;13.27;6.73;;;;;;;-1.30;100.00;99895.97;31163193;28;20425;-77
2021/12/29 01:52:20;;;;;;;15.83;9.07;;;;;;;-1.28;100.00;99888.44;31187951;28;20163;-78
2021/12/29 02:07:22;;;;;;;14.83;8.70;;;;;;;-1.33;100.00;99891.34;31238689;28;20121;-77
2021/12/29 02:22:40;;;;;;;27.53;13.00;;;;;;;-1.43;100.00;99891.88;31207704;28;20156;-76
2021/12/29 02:37:43;;;;;;;15.70;7.77;;;;;;;-1.42;100.00;99894.16;31163510;28;20050;-77
2021/12/29 02:52:46;;;;;;;15.87;9.27;;;;;;;-1.50;100.00;99908.44;31174431;28;20062;-75
2021/12/29 03:07:48;;;;;;;23.20;9.17;;;;;;;-1.64;100.00;99925.91;31182847;28;20124;-76
2021/12/29 03:22:55;;;;;;;18.60;8.77;;;;;;;-1.70;100.00;99937.94;31208812;28;20057;-76
2021/12/29 03:37:59;;;;;;;17.73;8.73;;;;;;;-1.67;100.00;99932.69;31199189;28;20046;-76
2021/12/29 03:53:02;;;;;;;17.57;9.93;;;;;;;-1.82;100.00;99947.50;31216102;28;20046;-76
2021/12/29 04:08:05;;;;;;;24.23;10.97;;;;;;;-1.82;100.00;99958.13;31188199;28;20507;-76
2021/12/29 04:23:09;;;;;;;22.43;10.10;;;;;;;-1.91;100.00;99954.88;31230329;28;20052;-76
2021/12/29 04:38:11;;;;;;;25.23;12.23;;;;;;;-1.80;100.00;99968.44;31197042;28;20056;-77
2021/12/29 04:53:13;;;;;;;30.40;14.63;;;;;;;-2.01;100.00;99999.78;31205141;28;20149;-77
2021/12/29 05:08:30;;;;;;;22.93;12.83;;;;;;;-2.19;100.00;100009.91;31200797;28;20426;-77
2021/12/29 05:23:32;;;;;;;16.30;8.37;;;;;;;-2.50;100.00;100013.13;31193538;28;20057;-77
2021/12/29 05:38:34;;;;;;;23.83;12.80;;;;;;;-2.59;100.00;100015.88;31200235;28;20059;-78
2021/12/29 05:53:36;;;;;;;24.30;11.20;;;;;;;-2.64;100.00;100029.41;31178664;28;20514;-77
2021/12/29 06:08:38;;;;;;;23.70;12.40;;;;;;;-2.81;100.00;100048.19;31177788;28;20057;-79
2021/12/29 06:23:39;;;;;;;26.33;10.47;;;;;;;-2.87;100.00;100068.13;31201669;28;20065;-79
2021/12/29 06:38:41;;;;;;;18.73;9.83;;;;;;;-2.82;100.00;100075.88;31179049;28;20557;-79
2021/12/29 06:53:43;;;;;;;24.63;11.93;;;;;;;-2.76;99.64;100070.03;31174233;28;20057;-79
2021/12/29 07:08:45;;;;;;;19.60;9.93;;;;;;;-2.84;99.78;100088.72;31177517;28;20132;-79
2021/12/29 07:23:47;;;;;;;13.60;8.07;;;;;;;-2.70;98.97;100078.56;31212948;28;20430;-80
2021/12/29 07:38:49;;;;;;;16.57;8.37;;;;;;;-2.71;99.20;100102.81;31169251;28;20046;-78
2021/12/29 07:53:51;;;;;;;19.13;9.80;;;;;;;-2.61;98.67;100111.16;31164951;28;20062;-80
2021/12/29 08:08:54;;;;;;;17.63;9.80;;;;;;;-2.47;98.70;100106.28;31205297;28;20533;-80
2021/12/29 08:23:56;;;;;;;18.87;9.53;;;;;;;-2.36;96.68;100100.53;31230215;28;20137;-81
2021/12/29 08:38:57;;;;;;;24.50;11.57;;;;;;;-2.48;98.06;100095.97;31231794;28;20046;-79
2021/12/29 08:54:02;;;;;;;26.10;11.47;;;;;;;-2.51;96.90;100092.09;31195719;28;20133;-80
2021/12/29 09:09:04;;;;;;;23.43;12.70;;;;;;;-2.45;96.92;100093.44;31206872;28;20506;-81
2021/12/29 09:24:06;;;;;;;24.33;10.57;;;;;;;-2.51;96.16;100102.72;31249450;28;20467;-80
2021/12/29 09:39:09;;;;;;;21.20;10.30;;;;;;;-2.46;96.23;100109.72;31206466;28;20050;-79
2021/12/29 09:54:11;;;;;;;19.47;10.20;;;;;;;-2.53;95.00;100099.63;31187400;28;20092;-79
2021/12/29 10:09:15;;;;;;;21.00;11.40;;;;;;;-2.48;95.11;100096.75;31209105;28;20045;-80
2021/12/29 10:24:19;;;;;;;31.37;11.03;;;;;;;-2.44;94.34;100087.00;31168700;28;20049;-81
2021/12/29 10:39:27;;;;;;;25.43;12.13;;;;;;;-2.31;93.28;100084.34;31206119;28;20453;-80
2021/12/29 10:54:29;;;;;;;17.33;9.23;;;;;;;-2.37;93.59;100091.00;31215057;28;20070;-81
2021/12/29 11:09:34;;;;;;;23.07;9.90;;;;;;;-2.65;92.41;100096.97;31169008;28;20419;-80
2021/12/29 11:24:36;;;;;;;23.97;9.63;;;;;;;-2.61;92.27;100103.16;31181745;28;20049;-79
2021/12/29 11:39:45;;;;;;;25.67;11.27;;;;;;;-2.77;91.44;100115.50;31205313;28;20129;-82
2021/12/29 11:55:11;;;;;;;25.13;9.97;;;;;;;-2.96;92.21;100129.31;31188882;28;20473;-80
2021/12/29 12:10:33;;;;;;;22.20;11.40;;;;;;;-2.79;92.02;100150.38;31205812;28;20046;-80
2021/12/29 12:25:36;;;;;;;25.47;10.80;;;;;;;-2.88;93.12;100160.34;31237697;28;20070;-80
2021/12/29 12:40:43;;;;;;;27.97;10.37;;;;;;;-3.03;91.59;100178.72;31213136;28;20053;-81
2021/12/29 12:55:54;;;;;;;19.93;9.80;;;;;;;-3.13;90.09;100187.88;31238683;28;20149;-81
2021/12/29 13:11:21;;;;;;;20.37;9.13;;;;;;;-3.27;89.57;100221.84;31250351;28;20053;-81
2021/12/29 13:26:27;;;;;;;13.67;8.70;;;;;;;-3.36;90.08;100221.16;31180031;28;20081;-81
2021/12/29 13:41:33;;;;;;;15.87;8.97;;;;;;;-3.47;91.03;100236.66;31239690;28;20132;-80
2021/12/29 13:56:38;;;;;;;19.33;10.23;;;;;;;-3.48;90.55;100251.03;31208221;28;20053;-81
2021/12/29 14:11:41;;;;;;;23.37;11.07;;;;;;;-3.54;90.59;100268.22;31168125;28;20052;-80
2021/12/29 14:26:46;;;;;;;17.23;9.80;;;;;;;-3.50;89.33;100277.09;31193738;28;20115;-79
2021/12/29 14:42:24;;;;;;;23.00;13.20;;;;;;;-3.40;90.07;100289.25;31127760;28;20460;-80
2021/12/29 14:57:30;;;;;;;21.53;12.70;;;;;;;-3.47;90.52;100295.06;31123258;28;20093;-81
2021/12/29 15:12:34;;;;;;;34.87;15.50;;;;;;;-3.41;90.00;100298.31;31147274;28;20058;-81
2021/12/29 15:27:36;;;;;;;20.50;11.30;;;;;;;-3.40;90.01;100300.66;31226337;28;20490;-80
2021/12/29 15:42:38;;;;;;;14.87;9.00;;;;;;;-3.36;90.52;100316.72;31146259;28;20060;-81
2021/12/29 15:57:40;;;;;;;19.70;11.23;;;;;;;-3.53;90.31;100326.28;31226665;28;20503;-81
2021/12/29 16:12:42;;;;;;;18.23;8.90;;;;;;;-3.44;91.90;100342.19;31222096;28;20089;-80
2021/12/29 16:27:45;;;;;;;18.43;10.13;;;;;;;-3.53;91.67;100334.25;31260946;28;20041;-83
2021/12/29 16:42:47;;;;;;;25.03;11.00;;;;;;;-3.45;92.68;100348.59;31232023;28;20410;-82
2021/12/29 16:57:49;;;;;;;20.77;10.73;;;;;;;-3.50;92.18;100349.53;31227150;28;20108;-75
2021/12/29 17:12:51;;;;;;;47.13;23.67;;;;;;;-3.51;93.88;100341.91;31211944;28;20052;-74
2021/12/29 17:27:53;;;;;;;16.77;10.53;;;;;;;-3.38;93.50;100346.25;31199288;28;20056;-74
2021/12/29 17:42:55;;;;;;;21.83;11.13;;;;;;;-3.42;92.76;100350.63;31229533;28;20136;-74
2021/12/29 17:57:57;;;;;;;15.40;8.60;;;;;;;-3.47;92.44;100338.28;31218931;28;20060;-80
2021/12/29 18:12:59;;;;;;;18.77;9.83;;;;;;;-3.34;93.06;100363.09;31243580;28;20145;-79
2021/12/29 18:44:27;;;;;;;23.70;13.17;;;;;;;-3.37;92.58;100357.63;31209926;28;20040;-80
2021/12/29 18:59:29;;;;;;;19.13;11.43;;;;;;;-3.40;91.57;100360.91;31256720;28;20078;-80
2021/12/29 19:14:36;;;;;;;18.07;9.83;;;;;;;-3.42;92.63;100366.53;31199883;28;20107;-81
2021/12/29 19:29:40;;;;;;;13.10;7.63;;;;;;;-3.41;92.80;100378.72;31166385;28;20062;-81
2021/12/29 19:44:46;;;;;;;16.47;7.37;;;;;;;-3.27;92.43;100397.88;31225946;28;20139;-79
2021/12/29 19:59:49;;;;;;;13.77;7.43;;;;;;;-3.27;93.47;100420.97;31176850;28;20148;-80
2021/12/29 20:14:51;;;;;;;10.03;7.03;;;;;;;-3.24;93.57;100423.78;31193814;28;20141;-80
2021/12/29 20:29:55;;;;;;;11.20;7.27;;;;;;;-3.23;92.19;100420.03;31242475;28;20489;-82
2021/12/29 20:44:57;;;;;;;15.33;9.57;;;;;;;-3.22;93.02;100437.53;31254385;28;20551;-80
2021/12/29 20:59:59;;;;;;;13.93;8.00;;;;;;;-3.31;93.60;100447.41;31216586;28;20056;-80
2021/12/29 21:15:05;;;;;;;12.53;8.33;;;;;;;-3.31;92.93;100446.63;31219711;28;20060;-80
2021/12/29 21:30:08;;;;;;;12.73;7.43;;;;;;;-3.38;92.18;100436.50;31206810;28;20045;-79
2021/12/29 21:45:14;;;;;;;17.40;8.53;;;;;;;-3.33;94.03;100438.19;31204212;28;20046;-80
2021/12/29 22:00:17;;;;;;;14.57;8.03;;;;;;;-3.16;95.13;100438.16;31186896;28;20045;-80
2021/12/29 22:15:20;;;;;;;9.80;7.17;;;;;;;-3.27;93.41;100442.22;31188129;28;20063;-81
2021/12/29 22:30:25;;;;;;;14.30;7.27;;;;;;;-3.38;93.80;100451.63;31228311;28;20045;-80
2021/12/29 22:45:30;;;;;;;15.43;7.97;;;;;;;-3.48;93.31;100452.75;31201015;28;20060;-78
2021/12/29 23:00:41;;;;;;;17.10;9.90;;;;;;;-3.39;93.94;100466.78;31246531;28;20064;-80
2021/12/29 23:15:43;;;;;;;16.87;8.80;;;;;;;-3.36;94.10;100471.47;31168454;28;20100;-80
2021/12/29 23:30:47;;;;;;;14.07;8.00;;;;;;;-3.39;94.43;100480.06;31219563;28;20046;-81
2021/12/29 23:45:49;;;;;;;18.00;7.83;;;;;;;-3.41;94.26;100506.13;31210240;28;20136;-79
